sensor_id;sensor_type;location;lat;lon;timestamp;P1;durP1;ratioP1;P2;durP2;ratioP2
62584;SDS011;48643;51.670;5.808;2023-06-14T00:00:02;10.48;;;5.40;;
62584;SDS011;48643;51.670;5.808;2023-06-14T00:02:30;12.23;;;5.50;;
62584;SDS011;48643;51.670;5.808;2023-06-14T00:04:57;12.35;;;5.57;;
62584;SDS011;48643;51.670;5.808;2023-06-14T00:07:35;10.57;;;5.40;;
62584;SDS011;48643;51.670;5.808;2023-06-14T00:10:03;11.10;;;4.70;;
62584;SDS011;48643;51.670;5.808;2023-06-14T00:12:31;11.55;;;4.97;;
62584;SDS011;48643;51.670;5.808;2023-06-14T00:14:58;11.10;;;5.13;;
62584;SDS011;48643;51.670;5.808;2023-06-14T00:17:25;14.32;;;4.93;;
62584;SDS011;48643;51.670;5.808;2023-06-14T00:19:57;6.47;;;4.45;;
62584;SDS011;48643;51.670;5.808;2023-06-14T00:22:24;8.15;;;4.70;;
62584;SDS011;48643;51.670;5.808;2023-06-14T00:24:51;10.90;;;4.93;;
62584;SDS011;48643;51.670;5.808;2023-06-14T00:29:46;6.95;;;4.40;;
62584;SDS011;48643;51.670;5.808;2023-06-14T00:32:13;8.55;;;4.63;;
62584;SDS011;48643;51.670;5.808;2023-06-14T00:34:40;7.70;;;5.15;;
62584;SDS011;48643;51.670;5.808;2023-06-14T00:37:07;8.30;;;4.22;;
62584;SDS011;48643;51.670;5.808;2023-06-14T00:39:34;11.90;;;4.90;;
62584;SDS011;48643;51.670;5.808;2023-06-14T00:42:01;10.55;;;4.60;;
62584;SDS011;48643;51.670;5.808;2023-06-14T00:44:28;11.15;;;4.75;;
62584;SDS011;48643;51.670;5.808;2023-06-14T00:46:54;7.78;;;4.82;;
62584;SDS011;48643;51.670;5.808;2023-06-14T00:49:22;11.02;;;4.70;;
62584;SDS011;48643;51.670;5.808;2023-06-14T00:51:49;7.95;;;4.80;;
62584;SDS011;48643;51.670;5.808;2023-06-14T00:54:17;7.72;;;4.18;;
62584;SDS011;48643;51.670;5.808;2023-06-14T00:56:44;9.80;;;4.63;;
62584;SDS011;48643;51.670;5.808;2023-06-14T00:59:11;7.88;;;4.32;;
62584;SDS011;48643;51.670;5.808;2023-06-14T01:01:39;12.65;;;4.57;;
62584;SDS011;48643;51.670;5.808;2023-06-14T01:04:07;10.00;;;4.50;;
62584;SDS011;48643;51.670;5.808;2023-06-14T01:11:49;13.10;;;4.57;;
62584;SDS011;48643;51.670;5.808;2023-06-14T01:14:19;8.77;;;4.50;;
62584;SDS011;48643;51.670;5.808;2023-06-14T01:16:46;13.25;;;4.32;;
62584;SDS011;48643;51.670;5.808;2023-06-14T01:19:14;15.80;;;4.60;;
62584;SDS011;48643;51.670;5.808;2023-06-14T01:21:41;8.70;;;4.60;;
62584;SDS011;48643;51.670;5.808;2023-06-14T01:24:09;12.68;;;4.88;;
62584;SDS011;48643;51.670;5.808;2023-06-14T01:29:05;6.70;;;4.30;;
62584;SDS011;48643;51.670;5.808;2023-06-14T01:31:33;6.28;;;4.20;;
62584;SDS011;48643;51.670;5.808;2023-06-14T01:34:07;9.07;;;4.10;;
62584;SDS011;48643;51.670;5.808;2023-06-14T01:36:35;11.68;;;4.55;;
62584;SDS011;48643;51.670;5.808;2023-06-14T01:39:03;9.95;;;4.50;;
62584;SDS011;48643;51.670;5.808;2023-06-14T01:41:30;7.65;;;4.38;;
62584;SDS011;48643;51.670;5.808;2023-06-14T01:43:58;11.68;;;4.63;;
62584;SDS011;48643;51.670;5.808;2023-06-14T01:46:25;10.25;;;4.45;;
62584;SDS011;48643;51.670;5.808;2023-06-14T01:48:53;11.60;;;4.40;;
62584;SDS011;48643;51.670;5.808;2023-06-14T01:51:20;7.40;;;4.15;;
62584;SDS011;48643;51.670;5.808;2023-06-14T01:53:47;11.88;;;4.68;;
62584;SDS011;48643;51.670;5.808;2023-06-14T01:56:14;7.70;;;4.35;;
62584;SDS011;48643;51.670;5.808;2023-06-14T01:58:42;10.27;;;4.43;;
62584;SDS011;48643;51.670;5.808;2023-06-14T02:01:09;11.35;;;4.30;;
62584;SDS011;48643;51.670;5.808;2023-06-14T02:03:37;10.80;;;4.50;;
62584;SDS011;48643;51.670;5.808;2023-06-14T02:06:05;9.10;;;4.25;;
62584;SDS011;48643;51.670;5.808;2023-06-14T02:08:32;12.00;;;4.10;;
62584;SDS011;48643;51.670;5.808;2023-06-14T02:10:59;9.90;;;4.32;;
62584;SDS011;48643;51.670;5.808;2023-06-14T02:13:26;14.30;;;4.28;;
62584;SDS011;48643;51.670;5.808;2023-06-14T02:15:53;14.55;;;4.28;;
62584;SDS011;48643;51.670;5.808;2023-06-14T02:18:21;9.05;;;4.13;;
62584;SDS011;48643;51.670;5.808;2023-06-14T02:20:49;6.93;;;3.90;;
62584;SDS011;48643;51.670;5.808;2023-06-14T02:23:16;8.18;;;4.30;;
62584;SDS011;48643;51.670;5.808;2023-06-14T02:25:43;11.00;;;4.25;;
62584;SDS011;48643;51.670;5.808;2023-06-14T02:28:11;10.52;;;4.20;;
62584;SDS011;48643;51.670;5.808;2023-06-14T02:30:38;12.10;;;4.25;;
62584;SDS011;48643;51.670;5.808;2023-06-14T02:33:05;8.50;;;4.15;;
62584;SDS011;48643;51.670;5.808;2023-06-14T02:35:32;10.18;;;4.53;;
62584;SDS011;48643;51.670;5.808;2023-06-14T02:37:59;9.20;;;4.22;;
62584;SDS011;48643;51.670;5.808;2023-06-14T02:40:26;8.27;;;4.10;;
62584;SDS011;48643;51.670;5.808;2023-06-14T02:42:55;14.50;;;4.28;;
62584;SDS011;48643;51.670;5.808;2023-06-14T02:45:22;8.63;;;4.05;;
62584;SDS011;48643;51.670;5.808;2023-06-14T02:47:49;8.05;;;4.28;;
62584;SDS011;48643;51.670;5.808;2023-06-14T02:50:16;9.43;;;4.00;;
62584;SDS011;48643;51.670;5.808;2023-06-14T02:52:44;13.35;;;3.80;;
62584;SDS011;48643;51.670;5.808;2023-06-14T02:55:11;8.77;;;4.45;;
62584;SDS011;48643;51.670;5.808;2023-06-14T02:57:39;9.20;;;4.25;;
62584;SDS011;48643;51.670;5.808;2023-06-14T03:00:08;9.73;;;4.13;;
62584;SDS011;48643;51.670;5.808;2023-06-14T03:02:41;8.65;;;4.30;;
62584;SDS011;48643;51.670;5.808;2023-06-14T03:05:11;8.85;;;4.00;;
62584;SDS011;48643;51.670;5.808;2023-06-14T03:07:39;11.10;;;3.97;;
62584;SDS011;48643;51.670;5.808;2023-06-14T03:10:08;9.57;;;4.05;;
62584;SDS011;48643;51.670;5.808;2023-06-14T03:12:38;10.90;;;4.57;;
62584;SDS011;48643;51.670;5.808;2023-06-14T03:15:06;6.22;;;4.07;;
62584;SDS011;48643;51.670;5.808;2023-06-14T03:17:38;10.48;;;4.25;;
62584;SDS011;48643;51.670;5.808;2023-06-14T03:20:06;9.93;;;4.13;;
62584;SDS011;48643;51.670;5.808;2023-06-14T03:22:34;12.45;;;4.47;;
62584;SDS011;48643;51.670;5.808;2023-06-14T03:25:01;8.32;;;4.35;;
62584;SDS011;48643;51.670;5.808;2023-06-14T03:27:34;9.02;;;3.78;;
62584;SDS011;48643;51.670;5.808;2023-06-14T03:30:01;23.35;;;4.38;;
62584;SDS011;48643;51.670;5.808;2023-06-14T03:32:30;11.75;;;4.30;;
62584;SDS011;48643;51.670;5.808;2023-06-14T03:35:00;7.95;;;4.35;;
62584;SDS011;48643;51.670;5.808;2023-06-14T03:37:27;12.20;;;4.35;;
62584;SDS011;48643;51.670;5.808;2023-06-14T03:39:54;11.23;;;4.13;;
62584;SDS011;48643;51.670;5.808;2023-06-14T03:42:23;11.02;;;4.93;;
62584;SDS011;48643;51.670;5.808;2023-06-14T03:44:50;11.30;;;4.40;;
62584;SDS011;48643;51.670;5.808;2023-06-14T03:47:20;13.35;;;4.65;;
62584;SDS011;48643;51.670;5.808;2023-06-14T03:49:46;10.77;;;4.55;;
62584;SDS011;48643;51.670;5.808;2023-06-14T03:52:13;9.68;;;4.20;;
62584;SDS011;48643;51.670;5.808;2023-06-14T03:54:42;9.07;;;4.43;;
62584;SDS011;48643;51.670;5.808;2023-06-14T03:57:13;17.38;;;4.40;;
62584;SDS011;48643;51.670;5.808;2023-06-14T03:59:42;10.68;;;4.18;;
62584;SDS011;48643;51.670;5.808;2023-06-14T04:02:09;14.25;;;4.22;;
62584;SDS011;48643;51.670;5.808;2023-06-14T04:04:36;15.18;;;4.53;;
62584;SDS011;48643;51.670;5.808;2023-06-14T04:07:04;7.38;;;3.83;;
62584;SDS011;48643;51.670;5.808;2023-06-14T04:09:31;13.13;;;3.85;;
62584;SDS011;48643;51.670;5.808;2023-06-14T04:11:58;11.18;;;4.32;;
62584;SDS011;48643;51.670;5.808;2023-06-14T04:14:25;7.93;;;3.90;;
62584;SDS011;48643;51.670;5.808;2023-06-14T04:16:52;15.57;;;4.22;;
62584;SDS011;48643;51.670;5.808;2023-06-14T04:19:20;13.48;;;4.10;;
62584;SDS011;48643;51.670;5.808;2023-06-14T04:21:47;9.10;;;3.80;;
62584;SDS011;48643;51.670;5.808;2023-06-14T04:24:15;11.50;;;3.80;;
62584;SDS011;48643;51.670;5.808;2023-06-14T04:26:45;11.98;;;4.07;;
62584;SDS011;48643;51.670;5.808;2023-06-14T04:29:15;8.10;;;4.15;;
62584;SDS011;48643;51.670;5.808;2023-06-14T04:31:48;7.80;;;3.72;;
62584;SDS011;48643;51.670;5.808;2023-06-14T04:34:16;12.82;;;4.38;;
62584;SDS011;48643;51.670;5.808;2023-06-14T04:36:49;13.60;;;4.28;;
62584;SDS011;48643;51.670;5.808;2023-06-14T04:39:20;12.65;;;4.40;;
62584;SDS011;48643;51.670;5.808;2023-06-14T04:41:48;8.85;;;4.20;;
62584;SDS011;48643;51.670;5.808;2023-06-14T04:44:19;8.77;;;4.10;;
62584;SDS011;48643;51.670;5.808;2023-06-14T04:46:48;9.73;;;4.10;;
62584;SDS011;48643;51.670;5.808;2023-06-14T04:49:20;12.07;;;4.25;;
62584;SDS011;48643;51.670;5.808;2023-06-14T04:51:47;12.15;;;4.10;;
62584;SDS011;48643;51.670;5.808;2023-06-14T04:54:17;16.95;;;4.30;;
62584;SDS011;48643;51.670;5.808;2023-06-14T04:56:45;11.63;;;4.20;;
62584;SDS011;48643;51.670;5.808;2023-06-14T04:59:13;10.98;;;3.78;;
62584;SDS011;48643;51.670;5.808;2023-06-14T05:01:41;7.97;;;3.92;;
62584;SDS011;48643;51.670;5.808;2023-06-14T05:04:08;12.43;;;4.10;;
62584;SDS011;48643;51.670;5.808;2023-06-14T05:06:35;10.77;;;4.30;;
62584;SDS011;48643;51.670;5.808;2023-06-14T05:09:03;10.77;;;3.78;;
62584;SDS011;48643;51.670;5.808;2023-06-14T05:11:29;11.70;;;4.10;;
62584;SDS011;48643;51.670;5.808;2023-06-14T05:13:56;7.63;;;3.60;;
62584;SDS011;48643;51.670;5.808;2023-06-14T05:16:24;13.05;;;4.00;;
62584;SDS011;48643;51.670;5.808;2023-06-14T05:18:54;7.25;;;3.97;;
62584;SDS011;48643;51.670;5.808;2023-06-14T05:21:21;9.75;;;4.20;;
62584;SDS011;48643;51.670;5.808;2023-06-14T05:23:48;7.43;;;4.10;;
62584;SDS011;48643;51.670;5.808;2023-06-14T05:26:15;13.23;;;4.15;;
62584;SDS011;48643;51.670;5.808;2023-06-14T05:28:42;9.68;;;4.10;;
62584;SDS011;48643;51.670;5.808;2023-06-14T05:31:09;11.55;;;4.15;;
62584;SDS011;48643;51.670;5.808;2023-06-14T05:33:36;6.65;;;3.85;;
62584;SDS011;48643;51.670;5.808;2023-06-14T05:36:02;14.88;;;4.10;;
62584;SDS011;48643;51.670;5.808;2023-06-14T05:38:31;17.75;;;4.45;;
62584;SDS011;48643;51.670;5.808;2023-06-14T05:40:58;10.00;;;3.72;;
62584;SDS011;48643;51.670;5.808;2023-06-14T05:43:26;9.90;;;4.00;;
62584;SDS011;48643;51.670;5.808;2023-06-14T05:45:53;9.93;;;4.00;;
62584;SDS011;48643;51.670;5.808;2023-06-14T05:48:19;13.15;;;3.95;;
62584;SDS011;48643;51.670;5.808;2023-06-14T05:50:47;8.85;;;3.72;;
62584;SDS011;48643;51.670;5.808;2023-06-14T05:53:14;7.45;;;3.80;;
62584;SDS011;48643;51.670;5.808;2023-06-14T05:55:41;12.25;;;4.00;;
62584;SDS011;48643;51.670;5.808;2023-06-14T05:58:08;13.00;;;4.07;;
62584;SDS011;48643;51.670;5.808;2023-06-14T06:00:35;8.68;;;3.88;;
62584;SDS011;48643;51.670;5.808;2023-06-14T06:03:02;9.38;;;4.15;;
62584;SDS011;48643;51.670;5.808;2023-06-14T06:05:29;9.55;;;4.47;;
62584;SDS011;48643;51.670;5.808;2023-06-14T06:07:56;9.60;;;4.07;;
62584;SDS011;48643;51.670;5.808;2023-06-14T06:10:23;7.88;;;3.90;;
62584;SDS011;48643;51.670;5.808;2023-06-14T06:12:50;8.57;;;3.83;;
62584;SDS011;48643;51.670;5.808;2023-06-14T06:15:18;8.48;;;4.00;;
62584;SDS011;48643;51.670;5.808;2023-06-14T06:17:45;11.35;;;4.00;;
62584;SDS011;48643;51.670;5.808;2023-06-14T06:20:21;7.70;;;4.20;;
62584;SDS011;48643;51.670;5.808;2023-06-14T06:22:55;8.50;;;3.50;;
62584;SDS011;48643;51.670;5.808;2023-06-14T06:25:22;9.32;;;4.10;;
62584;SDS011;48643;51.670;5.808;2023-06-14T06:27:53;8.80;;;3.80;;
62584;SDS011;48643;51.670;5.808;2023-06-14T06:30:20;9.87;;;4.07;;
62584;SDS011;48643;51.670;5.808;2023-06-14T06:32:47;10.73;;;3.97;;
62584;SDS011;48643;51.670;5.808;2023-06-14T06:35:14;15.50;;;4.43;;
62584;SDS011;48643;51.670;5.808;2023-06-14T06:37:42;8.38;;;3.95;;
62584;SDS011;48643;51.670;5.808;2023-06-14T06:40:09;12.15;;;3.80;;
62584;SDS011;48643;51.670;5.808;2023-06-14T06:42:36;7.10;;;3.45;;
62584;SDS011;48643;51.670;5.808;2023-06-14T06:45:04;19.40;;;3.80;;
62584;SDS011;48643;51.670;5.808;2023-06-14T06:47:32;12.77;;;3.90;;
62584;SDS011;48643;51.670;5.808;2023-06-14T06:49:59;7.47;;;4.13;;
62584;SDS011;48643;51.670;5.808;2023-06-14T06:52:26;14.73;;;4.43;;
62584;SDS011;48643;51.670;5.808;2023-06-14T06:54:53;7.85;;;3.53;;
62584;SDS011;48643;51.670;5.808;2023-06-14T06:57:21;9.93;;;4.33;;
62584;SDS011;48643;51.670;5.808;2023-06-14T06:59:51;13.52;;;4.18;;
62584;SDS011;48643;51.670;5.808;2023-06-14T07:02:18;13.30;;;4.20;;
62584;SDS011;48643;51.670;5.808;2023-06-14T07:04:45;10.45;;;4.10;;
62584;SDS011;48643;51.670;5.808;2023-06-14T07:07:12;6.50;;;3.83;;
62584;SDS011;48643;51.670;5.808;2023-06-14T07:09:39;7.65;;;3.53;;
62584;SDS011;48643;51.670;5.808;2023-06-14T07:12:08;7.90;;;3.92;;
62584;SDS011;48643;51.670;5.808;2023-06-14T07:14:35;11.43;;;3.67;;
62584;SDS011;48643;51.670;5.808;2023-06-14T07:17:01;10.90;;;3.60;;
62584;SDS011;48643;51.670;5.808;2023-06-14T07:19:29;7.90;;;3.80;;
62584;SDS011;48643;51.670;5.808;2023-06-14T07:21:57;11.82;;;3.60;;
62584;SDS011;48643;51.670;5.808;2023-06-14T07:24:24;9.40;;;3.55;;
62584;SDS011;48643;51.670;5.808;2023-06-14T07:26:51;6.93;;;3.60;;
62584;SDS011;48643;51.670;5.808;2023-06-14T07:29:18;11.55;;;3.63;;
62584;SDS011;48643;51.670;5.808;2023-06-14T07:31:45;9.55;;;3.50;;
62584;SDS011;48643;51.670;5.808;2023-06-14T07:34:12;12.45;;;3.70;;
62584;SDS011;48643;51.670;5.808;2023-06-14T07:36:39;18.70;;;4.05;;
62584;SDS011;48643;51.670;5.808;2023-06-14T07:39:06;6.05;;;3.40;;
62584;SDS011;48643;51.670;5.808;2023-06-14T07:41:33;9.43;;;3.53;;
62584;SDS011;48643;51.670;5.808;2023-06-14T07:44:00;14.07;;;3.33;;
62584;SDS011;48643;51.670;5.808;2023-06-14T07:46:27;10.77;;;3.25;;
62584;SDS011;48643;51.670;5.808;2023-06-14T07:48:54;6.50;;;3.10;;
62584;SDS011;48643;51.670;5.808;2023-06-14T07:51:21;9.13;;;3.28;;
62584;SDS011;48643;51.670;5.808;2023-06-14T07:53:48;8.23;;;3.30;;
62584;SDS011;48643;51.670;5.808;2023-06-14T07:56:15;9.27;;;3.08;;
62584;SDS011;48643;51.670;5.808;2023-06-14T07:58:42;5.78;;;2.78;;
62584;SDS011;48643;51.670;5.808;2023-06-14T08:01:09;8.55;;;2.70;;
62584;SDS011;48643;51.670;5.808;2023-06-14T08:03:37;4.50;;;2.77;;
62584;SDS011;48643;51.670;5.808;2023-06-14T08:06:05;7.68;;;2.70;;
62584;SDS011;48643;51.670;5.808;2023-06-14T08:08:33;5.40;;;2.70;;
62584;SDS011;48643;51.670;5.808;2023-06-14T08:11:00;8.10;;;2.90;;
62584;SDS011;48643;51.670;5.808;2023-06-14T08:13:27;5.70;;;2.80;;
62584;SDS011;48643;51.670;5.808;2023-06-14T08:15:54;6.15;;;2.78;;
62584;SDS011;48643;51.670;5.808;2023-06-14T08:18:23;9.27;;;2.50;;
62584;SDS011;48643;51.670;5.808;2023-06-14T08:20:50;4.25;;;2.00;;
62584;SDS011;48643;51.670;5.808;2023-06-14T08:23:18;4.47;;;2.05;;
62584;SDS011;48643;51.670;5.808;2023-06-14T08:25:47;2.92;;;1.95;;
62584;SDS011;48643;51.670;5.808;2023-06-14T08:28:14;5.43;;;2.13;;
62584;SDS011;48643;51.670;5.808;2023-06-14T08:30:41;7.78;;;2.00;;
62584;SDS011;48643;51.670;5.808;2023-06-14T08:33:08;18.40;;;2.33;;
62584;SDS011;48643;51.670;5.808;2023-06-14T08:35:42;7.53;;;2.20;;
62584;SDS011;48643;51.670;5.808;2023-06-14T08:38:10;7.57;;;2.03;;
62584;SDS011;48643;51.670;5.808;2023-06-14T08:40:38;6.85;;;2.05;;
62584;SDS011;48643;51.670;5.808;2023-06-14T08:43:06;5.95;;;2.20;;
62584;SDS011;48643;51.670;5.808;2023-06-14T08:45:33;4.55;;;2.13;;
62584;SDS011;48643;51.670;5.808;2023-06-14T08:48:01;5.50;;;1.98;;
62584;SDS011;48643;51.670;5.808;2023-06-14T08:50:29;3.90;;;2.10;;
62584;SDS011;48643;51.670;5.808;2023-06-14T08:52:59;6.05;;;2.13;;
62584;SDS011;48643;51.670;5.808;2023-06-14T08:55:28;12.98;;;2.40;;
62584;SDS011;48643;51.670;5.808;2023-06-14T08:58:01;8.48;;;2.35;;
62584;SDS011;48643;51.670;5.808;2023-06-14T09:02:59;4.20;;;2.35;;
62584;SDS011;48643;51.670;5.808;2023-06-14T09:05:26;7.10;;;2.45;;
62584;SDS011;48643;51.670;5.808;2023-06-14T09:07:54;4.30;;;2.10;;
62584;SDS011;48643;51.670;5.808;2023-06-14T09:10:21;4.00;;;2.42;;
62584;SDS011;48643;51.670;5.808;2023-06-14T09:12:49;7.85;;;2.20;;
62584;SDS011;48643;51.670;5.808;2023-06-14T09:15:17;6.03;;;2.23;;
62584;SDS011;48643;51.670;5.808;2023-06-14T09:17:44;6.57;;;2.50;;
62584;SDS011;48643;51.670;5.808;2023-06-14T09:20:11;7.50;;;2.50;;
62584;SDS011;48643;51.670;5.808;2023-06-14T09:22:46;3.95;;;2.20;;
62584;SDS011;48643;51.670;5.808;2023-06-14T09:25:13;6.18;;;2.22;;
62584;SDS011;48643;51.670;5.808;2023-06-14T09:28:01;6.07;;;2.42;;
62584;SDS011;48643;51.670;5.808;2023-06-14T09:30:28;6.00;;;2.47;;
62584;SDS011;48643;51.670;5.808;2023-06-14T09:32:55;11.82;;;2.38;;
62584;SDS011;48643;51.670;5.808;2023-06-14T09:35:26;10.15;;;2.60;;
62584;SDS011;48643;51.670;5.808;2023-06-14T09:37:56;7.38;;;2.45;;
62584;SDS011;48643;51.670;5.808;2023-06-14T09:40:23;6.97;;;2.50;;
62584;SDS011;48643;51.670;5.808;2023-06-14T09:42:50;4.35;;;2.50;;
62584;SDS011;48643;51.670;5.808;2023-06-14T09:45:18;6.05;;;2.50;;
62584;SDS011;48643;51.670;5.808;2023-06-14T09:47:48;7.78;;;2.60;;
62584;SDS011;48643;51.670;5.808;2023-06-14T09:50:31;7.38;;;2.42;;
62584;SDS011;48643;51.670;5.808;2023-06-14T09:53:03;7.75;;;2.70;;
62584;SDS011;48643;51.670;5.808;2023-06-14T09:55:36;11.70;;;2.58;;
62584;SDS011;48643;51.670;5.808;2023-06-14T09:58:05;7.32;;;2.50;;
62584;SDS011;48643;51.670;5.808;2023-06-14T10:00:34;5.75;;;2.40;;
62584;SDS011;48643;51.670;5.808;2023-06-14T10:03:16;6.65;;;2.30;;
62584;SDS011;48643;51.670;5.808;2023-06-14T10:06:15;5.40;;;2.40;;
62584;SDS011;48643;51.670;5.808;2023-06-14T10:08:43;5.30;;;2.42;;
62584;SDS011;48643;51.670;5.808;2023-06-14T10:11:11;6.03;;;2.42;;
62584;SDS011;48643;51.670;5.808;2023-06-14T10:13:39;8.18;;;2.80;;
62584;SDS011;48643;51.670;5.808;2023-06-14T10:16:17;8.48;;;2.40;;
62584;SDS011;48643;51.670;5.808;2023-06-14T10:18:51;5.18;;;2.50;;
62584;SDS011;48643;51.670;5.808;2023-06-14T10:21:36;6.95;;;2.55;;
62584;SDS011;48643;51.670;5.808;2023-06-14T10:24:09;4.72;;;2.40;;
62584;SDS011;48643;51.670;5.808;2023-06-14T10:27:00;5.15;;;2.03;;
62584;SDS011;48643;51.670;5.808;2023-06-14T10:29:27;9.48;;;2.20;;
62584;SDS011;48643;51.670;5.808;2023-06-14T10:31:59;5.05;;;2.63;;
62584;SDS011;48643;51.670;5.808;2023-06-14T10:34:27;7.93;;;2.30;;
62584;SDS011;48643;51.670;5.808;2023-06-14T10:39:42;10.00;;;2.28;;
62584;SDS011;48643;51.670;5.808;2023-06-14T10:42:10;10.88;;;2.35;;
62584;SDS011;48643;51.670;5.808;2023-06-14T10:44:50;7.65;;;2.50;;
62584;SDS011;48643;51.670;5.808;2023-06-14T10:47:25;9.98;;;2.20;;
62584;SDS011;48643;51.670;5.808;2023-06-14T10:50:06;6.45;;;2.10;;
62584;SDS011;48643;51.670;5.808;2023-06-14T10:52:41;4.47;;;2.20;;
62584;SDS011;48643;51.670;5.808;2023-06-14T10:55:13;4.80;;;2.22;;
62584;SDS011;48643;51.670;5.808;2023-06-14T10:57:46;5.93;;;2.30;;
62584;SDS011;48643;51.670;5.808;2023-06-14T11:00:19;9.43;;;2.22;;
62584;SDS011;48643;51.670;5.808;2023-06-14T11:05:55;5.63;;;2.30;;
62584;SDS011;48643;51.670;5.808;2023-06-14T11:13:39;8.38;;;2.00;;
62584;SDS011;48643;51.670;5.808;2023-06-14T11:16:14;14.13;;;2.30;;
62584;SDS011;48643;51.670;5.808;2023-06-14T11:18:43;11.77;;;2.33;;
62584;SDS011;48643;51.670;5.808;2023-06-14T11:21:15;3.17;;;2.00;;
62584;SDS011;48643;51.670;5.808;2023-06-14T11:23:53;6.40;;;2.20;;
62584;SDS011;48643;51.670;5.808;2023-06-14T11:26:25;7.20;;;2.45;;
62584;SDS011;48643;51.670;5.808;2023-06-14T11:29:00;5.18;;;2.40;;
62584;SDS011;48643;51.670;5.808;2023-06-14T11:31:28;3.20;;;2.45;;
62584;SDS011;48643;51.670;5.808;2023-06-14T11:36:27;4.30;;;2.40;;
62584;SDS011;48643;51.670;5.808;2023-06-14T11:38:58;4.07;;;2.30;;
62584;SDS011;48643;51.670;5.808;2023-06-14T11:41:31;3.53;;;2.40;;
62584;SDS011;48643;51.670;5.808;2023-06-14T11:44:00;6.95;;;2.28;;
62584;SDS011;48643;51.670;5.808;2023-06-14T11:46:28;4.45;;;2.30;;
62584;SDS011;48643;51.670;5.808;2023-06-14T11:48:55;5.13;;;2.92;;
62584;SDS011;48643;51.670;5.808;2023-06-14T11:51:22;5.47;;;2.75;;
62584;SDS011;48643;51.670;5.808;2023-06-14T11:53:49;8.88;;;2.70;;
62584;SDS011;48643;51.670;5.808;2023-06-14T11:56:16;4.95;;;2.55;;
62584;SDS011;48643;51.670;5.808;2023-06-14T11:58:43;3.53;;;2.70;;
62584;SDS011;48643;51.670;5.808;2023-06-14T12:01:14;6.13;;;2.10;;
62584;SDS011;48643;51.670;5.808;2023-06-14T12:03:49;6.78;;;2.20;;
62584;SDS011;48643;51.670;5.808;2023-06-14T12:06:24;4.05;;;2.15;;
62584;SDS011;48643;51.670;5.808;2023-06-14T12:08:55;4.90;;;2.25;;
62584;SDS011;48643;51.670;5.808;2023-06-14T12:11:22;3.88;;;2.13;;
62584;SDS011;48643;51.670;5.808;2023-06-14T12:13:49;5.75;;;2.30;;
62584;SDS011;48643;51.670;5.808;2023-06-14T12:16:16;3.28;;;2.00;;
62584;SDS011;48643;51.670;5.808;2023-06-14T12:18:43;2.88;;;2.00;;
62584;SDS011;48643;51.670;5.808;2023-06-14T12:21:12;4.68;;;2.20;;
62584;SDS011;48643;51.670;5.808;2023-06-14T12:23:42;5.47;;;2.28;;
62584;SDS011;48643;51.670;5.808;2023-06-14T12:26:09;6.55;;;2.40;;
62584;SDS011;48643;51.670;5.808;2023-06-14T12:28:39;8.77;;;2.42;;
62584;SDS011;48643;51.670;5.808;2023-06-14T12:31:07;9.15;;;2.50;;
62584;SDS011;48643;51.670;5.808;2023-06-14T12:33:34;10.88;;;2.35;;
62584;SDS011;48643;51.670;5.808;2023-06-14T12:38:32;6.25;;;2.42;;
62584;SDS011;48643;51.670;5.808;2023-06-14T12:41:00;3.03;;;2.07;;
62584;SDS011;48643;51.670;5.808;2023-06-14T12:43:27;10.48;;;2.30;;
62584;SDS011;48643;51.670;5.808;2023-06-14T12:45:54;7.68;;;2.20;;
62584;SDS011;48643;51.670;5.808;2023-06-14T12:48:21;10.70;;;2.22;;
62584;SDS011;48643;51.670;5.808;2023-06-14T12:50:48;6.00;;;2.40;;
62584;SDS011;48643;51.670;5.808;2023-06-14T12:53:15;11.13;;;2.30;;
62584;SDS011;48643;51.670;5.808;2023-06-14T12:55:43;9.82;;;2.20;;
62584;SDS011;48643;51.670;5.808;2023-06-14T12:58:10;10.05;;;2.30;;
62584;SDS011;48643;51.670;5.808;2023-06-14T13:00:40;5.95;;;2.33;;
62584;SDS011;48643;51.670;5.808;2023-06-14T13:03:07;3.25;;;2.28;;
62584;SDS011;48643;51.670;5.808;2023-06-14T13:05:34;4.68;;;2.30;;
62584;SDS011;48643;51.670;5.808;2023-06-14T13:08:01;13.52;;;2.58;;
62584;SDS011;48643;51.670;5.808;2023-06-14T13:10:28;7.82;;;2.30;;
62584;SDS011;48643;51.670;5.808;2023-06-14T13:12:55;8.38;;;2.08;;
62584;SDS011;48643;51.670;5.808;2023-06-14T13:15:24;4.13;;;2.00;;
62584;SDS011;48643;51.670;5.808;2023-06-14T13:17:51;11.90;;;2.20;;
62584;SDS011;48643;51.670;5.808;2023-06-14T13:20:18;5.78;;;2.00;;
62584;SDS011;48643;51.670;5.808;2023-06-14T13:22:46;10.15;;;2.20;;
62584;SDS011;48643;51.670;5.808;2023-06-14T13:25:13;8.88;;;2.20;;
62584;SDS011;48643;51.670;5.808;2023-06-14T13:27:40;3.92;;;1.70;;
62584;SDS011;48643;51.670;5.808;2023-06-14T13:30:07;11.30;;;1.92;;
62584;SDS011;48643;51.670;5.808;2023-06-14T13:32:35;7.32;;;2.13;;
62584;SDS011;48643;51.670;5.808;2023-06-14T13:35:02;5.80;;;2.00;;
62584;SDS011;48643;51.670;5.808;2023-06-14T13:37:30;4.55;;;1.65;;
62584;SDS011;48643;51.670;5.808;2023-06-14T13:39:57;5.47;;;1.88;;
62584;SDS011;48643;51.670;5.808;2023-06-14T13:42:24;6.30;;;1.70;;
62584;SDS011;48643;51.670;5.808;2023-06-14T13:44:51;15.63;;;2.15;;
62584;SDS011;48643;51.670;5.808;2023-06-14T13:47:19;12.93;;;2.00;;
62584;SDS011;48643;51.670;5.808;2023-06-14T13:49:46;4.28;;;1.80;;
62584;SDS011;48643;51.670;5.808;2023-06-14T13:52:13;6.70;;;1.90;;
62584;SDS011;48643;51.670;5.808;2023-06-14T13:54:40;7.72;;;1.80;;
62584;SDS011;48643;51.670;5.808;2023-06-14T13:59:35;11.90;;;1.90;;
62584;SDS011;48643;51.670;5.808;2023-06-14T14:02:02;4.93;;;2.00;;
62584;SDS011;48643;51.670;5.808;2023-06-14T14:04:29;3.73;;;2.00;;
62584;SDS011;48643;51.670;5.808;2023-06-14T14:06:56;4.47;;;2.08;;
62584;SDS011;48643;51.670;5.808;2023-06-14T14:09:23;4.43;;;2.00;;
62584;SDS011;48643;51.670;5.808;2023-06-14T14:11:50;7.68;;;2.15;;
62584;SDS011;48643;51.670;5.808;2023-06-14T14:14:17;2.70;;;1.98;;
62584;SDS011;48643;51.670;5.808;2023-06-14T14:16:44;4.25;;;2.00;;
62584;SDS011;48643;51.670;5.808;2023-06-14T14:19:11;8.57;;;2.20;;
62584;SDS011;48643;51.670;5.808;2023-06-14T14:21:38;13.38;;;2.22;;
62584;SDS011;48643;51.670;5.808;2023-06-14T14:24:05;8.23;;;2.10;;
62584;SDS011;48643;51.670;5.808;2023-06-14T14:26:32;3.17;;;2.00;;
62584;SDS011;48643;51.670;5.808;2023-06-14T14:28:59;6.53;;;2.33;;
62584;SDS011;48643;51.670;5.808;2023-06-14T14:31:26;8.05;;;2.25;;
62584;SDS011;48643;51.670;5.808;2023-06-14T14:33:53;11.43;;;2.47;;
62584;SDS011;48643;51.670;5.808;2023-06-14T14:36:20;6.22;;;2.20;;
62584;SDS011;48643;51.670;5.808;2023-06-14T14:38:47;17.00;;;2.40;;
62584;SDS011;48643;51.670;5.808;2023-06-14T14:41:14;9.75;;;2.35;;
62584;SDS011;48643;51.670;5.808;2023-06-14T14:43:41;13.00;;;2.45;;
62584;SDS011;48643;51.670;5.808;2023-06-14T14:46:08;9.13;;;2.40;;
62584;SDS011;48643;51.670;5.808;2023-06-14T14:48:35;4.55;;;2.05;;
62584;SDS011;48643;51.670;5.808;2023-06-14T14:51:02;11.35;;;2.20;;
62584;SDS011;48643;51.670;5.808;2023-06-14T14:53:29;16.45;;;2.45;;
62584;SDS011;48643;51.670;5.808;2023-06-14T14:55:56;3.35;;;1.88;;
62584;SDS011;48643;51.670;5.808;2023-06-14T14:58:23;26.45;;;2.63;;
62584;SDS011;48643;51.670;5.808;2023-06-14T15:00:50;13.23;;;2.30;;
62584;SDS011;48643;51.670;5.808;2023-06-14T15:03:17;12.52;;;2.50;;
62584;SDS011;48643;51.670;5.808;2023-06-14T15:05:44;15.18;;;3.17;;
62584;SDS011;48643;51.670;5.808;2023-06-14T15:08:11;5.93;;;1.90;;
62584;SDS011;48643;51.670;5.808;2023-06-14T15:10:38;8.48;;;2.38;;
62584;SDS011;48643;51.670;5.808;2023-06-14T15:13:07;5.00;;;2.10;;
62584;SDS011;48643;51.670;5.808;2023-06-14T15:15:35;11.02;;;2.20;;
62584;SDS011;48643;51.670;5.808;2023-06-14T15:18:02;10.47;;;2.77;;
62584;SDS011;48643;51.670;5.808;2023-06-14T15:20:29;5.93;;;3.45;;